sensor_id;sensor_type;location;lat;lon;timestamp;pressure;altitude;pressure_sealevel;temperature;humidity
73422;BME280;61637;47.760;-122.022;2023-12-14T00:00:00;101930.339;;;8.5;68.0
73422;BME280;61637;47.760;-122.022;2023-12-14T00:02:00;101930.339;;;8.4;66.0
73422;BME280;61637;47.760;-122.022;2023-12-14T00:04:00;101930.339;;;8.4;69.0
73422;BME280;61637;47.760;-122.022;2023-12-14T00:06:00;101930.339;;;8.3;71.0
73422;BME280;61637;47.760;-122.022;2023-12-14T00:08:00;101930.339;;;8.2;64.0
73422;BME280;61637;47.760;-122.022;2023-12-14T00:10:00;101930.339;;;8.2;66.0
73422;BME280;61637;47.760;-122.022;2023-12-14T00:12:00;101930.339;;;8.2;68.0
73422;BME280;61637;47.760;-122.022;2023-12-14T00:14:00;101930.339;;;8.2;70.0
73422;BME280;61637;47.760;-122.022;2023-12-14T00:16:00;101930.339;;;8.2;71.0
73422;BME280;61637;47.760;-122.022;2023-12-14T00:18:00;101930.339;;;8.1;70.0
73422;BME280;61637;47.760;-122.022;2023-12-14T00:20:00;101930.339;;;8.0;68.0
73422;BME280;61637;47.760;-122.022;2023-12-14T00:22:00;101930.339;;;7.9;69.0
73422;BME280;61637;47.760;-122.022;2023-12-14T00:24:00;101930.339;;;7.9;73.0
73422;BME280;61637;47.760;-122.022;2023-12-14T00:26:00;101930.339;;;7.8;68.0
73422;BME280;61637;47.760;-122.022;2023-12-14T00:28:00;101930.339;;;7.8;68.0
73422;BME280;61637;47.760;-122.022;2023-12-14T00:30:01;101930.339;;;7.8;70.0
73422;BME280;61637;47.760;-122.022;2023-12-14T00:32:00;101930.339;;;7.8;69.0
73422;BME280;61637;47.760;-122.022;2023-12-14T00:34:00;101930.339;;;7.8;70.0
73422;BME280;61637;47.760;-122.022;2023-12-14T00:36:01;101930.339;;;7.8;70.0
73422;BME280;61637;47.760;-122.022;2023-12-14T00:38:00;101930.339;;;7.7;70.0
73422;BME280;61637;47.760;-122.022;2023-12-14T00:40:00;101930.339;;;7.7;68.0
73422;BME280;61637;47.760;-122.022;2023-12-14T00:42:00;101930.339;;;7.7;69.0
73422;BME280;61637;47.760;-122.022;2023-12-14T00:44:00;101930.339;;;7.6;70.0
73422;BME280;61637;47.760;-122.022;2023-12-14T00:46:00;101930.339;;;7.6;69.0
73422;BME280;61637;47.760;-122.022;2023-12-14T00:48:00;101930.339;;;7.6;70.0
73422;BME280;61637;47.760;-122.022;2023-12-14T00:50:01;101930.339;;;7.6;67.0
73422;BME280;61637;47.760;-122.022;2023-12-14T00:52:00;101930.339;;;7.6;71.0
73422;BME280;61637;47.760;-122.022;2023-12-14T00:54:00;101930.339;;;7.4;73.0
73422;BME280;61637;47.760;-122.022;2023-12-14T00:56:00;101930.339;;;7.3;73.0
73422;BME280;61637;47.760;-122.022;2023-12-14T00:58:00;101930.339;;;7.3;70.0
73422;BME280;61637;47.760;-122.022;2023-12-14T01:00:00;101930.339;;;7.2;73.0
73422;BME280;61637;47.760;-122.022;2023-12-14T01:02:00;101930.339;;;7.2;69.0
73422;BME280;61637;47.760;-122.022;2023-12-14T01:04:00;101930.339;;;7.3;72.0
73422;BME280;61637;47.760;-122.022;2023-12-14T01:06:00;101930.339;;;7.3;71.0
73422;BME280;61637;47.760;-122.022;2023-12-14T01:08:00;101930.339;;;7.3;72.0
73422;BME280;61637;47.760;-122.022;2023-12-14T01:10:00;101930.339;;;7.3;72.0
73422;BME280;61637;47.760;-122.022;2023-12-14T01:12:00;101930.339;;;7.3;71.0
73422;BME280;61637;47.760;-122.022;2023-12-14T01:14:00;101930.339;;;7.3;72.0
73422;BME280;61637;47.760;-122.022;2023-12-14T01:16:00;101930.339;;;7.3;70.0
73422;BME280;61637;47.760;-122.022;2023-12-14T01:18:00;101930.339;;;7.2;72.0
73422;BME280;61637;47.760;-122.022;2023-12-14T01:20:00;101930.339;;;7.2;71.0
73422;BME280;61637;47.760;-122.022;2023-12-14T01:22:00;101930.339;;;7.2;72.0
73422;BME280;61637;47.760;-122.022;2023-12-14T01:24:00;101930.339;;;7.2;71.0
73422;BME280;61637;47.760;-122.022;2023-12-14T01:26:00;101930.339;;;7.1;72.0
73422;BME280;61637;47.760;-122.022;2023-12-14T01:28:00;101930.339;;;7.1;75.0
73422;BME280;61637;47.760;-122.022;2023-12-14T01:30:00;101930.339;;;6.9;74.0
73422;BME280;61637;47.760;-122.022;2023-12-14T01:32:00;101930.339;;;6.9;75.0
73422;BME280;61637;47.760;-122.022;2023-12-14T01:34:00;101930.339;;;6.8;74.0
73422;BME280;61637;47.760;-122.022;2023-12-14T01:36:00;101930.339;;;6.8;75.0
73422;BME280;61637;47.760;-122.022;2023-12-14T01:38:00;101930.339;;;6.8;76.0
73422;BME280;61637;47.760;-122.022;2023-12-14T01:40:00;101930.339;;;6.7;75.0
73422;BME280;61637;47.760;-122.022;2023-12-14T01:42:00;101930.339;;;6.6;72.0
73422;BME280;61637;47.760;-122.022;2023-12-14T01:44:00;101930.339;;;6.7;73.0
73422;BME280;61637;47.760;-122.022;2023-12-14T01:46:00;101930.339;;;6.7;75.0
73422;BME280;61637;47.760;-122.022;2023-12-14T01:48:00;101930.339;;;6.8;71.0
73422;BME280;61637;47.760;-122.022;2023-12-14T01:50:00;101930.339;;;6.8;72.0
73422;BME280;61637;47.760;-122.022;2023-12-14T01:52:00;101930.339;;;6.8;74.0
73422;BME280;61637;47.760;-122.022;2023-12-14T01:54:00;101930.339;;;6.8;71.0
73422;BME280;61637;47.760;-122.022;2023-12-14T01:56:00;101930.339;;;6.8;71.0
73422;BME280;61637;47.760;-122.022;2023-12-14T01:58:00;101930.339;;;6.8;72.0
73422;BME280;61637;47.760;-122.022;2023-12-14T02:00:00;101930.339;;;6.8;72.0
73422;BME280;61637;47.760;-122.022;2023-12-14T02:02:00;101930.339;;;6.8;71.0
73422;BME280;61637;47.760;-122.022;2023-12-14T02:04:00;101930.339;;;6.8;72.0
73422;BME280;61637;47.760;-122.022;2023-12-14T02:06:00;101930.339;;;6.9;71.0
73422;BME280;61637;47.760;-122.022;2023-12-14T02:08:00;101930.339;;;6.9;71.0
73422;BME280;61637;47.760;-122.022;2023-12-14T02:10:00;101930.339;;;6.9;71.0
73422;BME280;61637;47.760;-122.022;2023-12-14T02:12:00;101930.339;;;6.9;70.0
73422;BME280;61637;47.760;-122.022;2023-12-14T02:14:03;101930.339;;;6.9;70.0
73422;BME280;61637;47.760;-122.022;2023-12-14T02:16:00;101930.339;;;6.9;70.0
73422;BME280;61637;47.760;-122.022;2023-12-14T02:18:00;101930.339;;;6.9;70.0
73422;BME280;61637;47.760;-122.022;2023-12-14T02:20:00;101930.339;;;6.8;70.0
73422;BME280;61637;47.760;-122.022;2023-12-14T02:22:00;101930.339;;;6.8;72.0
73422;BME280;61637;47.760;-122.022;2023-12-14T02:24:00;101930.339;;;6.8;71.0
73422;BME280;61637;47.760;-122.022;2023-12-14T02:26:00;101930.339;;;6.7;72.0
73422;BME280;61637;47.760;-122.022;2023-12-14T02:28:00;101930.339;;;6.7;71.0
73422;BME280;61637;47.760;-122.022;2023-12-14T02:30:00;101930.339;;;6.7;70.0
73422;BME280;61637;47.760;-122.022;2023-12-14T02:32:00;101930.339;;;6.7;71.0
73422;BME280;61637;47.760;-122.022;2023-12-14T02:34:00;101930.339;;;6.7;71.0
73422;BME280;61637;47.760;-122.022;2023-12-14T02:36:00;101930.339;;;6.7;72.0
73422;BME280;61637;47.760;-122.022;2023-12-14T02:38:00;101930.339;;;6.7;71.0
73422;BME280;61637;47.760;-122.022;2023-12-14T02:40:00;101930.339;;;6.6;72.0
73422;BME280;61637;47.760;-122.022;2023-12-14T02:42:00;101930.339;;;6.6;72.0
73422;BME280;61637;47.760;-122.022;2023-12-14T02:44:00;101930.339;;;6.6;71.0
73422;BME280;61637;47.760;-122.022;2023-12-14T02:46:00;101930.339;;;6.6;72.0
73422;BME280;61637;47.760;-122.022;2023-12-14T02:48:00;101930.339;;;6.6;71.0
73422;BME280;61637;47.760;-122.022;2023-12-14T02:50:00;101930.339;;;6.6;73.0
73422;BME280;61637;47.760;-122.022;2023-12-14T02:52:00;101930.339;;;6.6;72.0
73422;BME280;61637;47.760;-122.022;2023-12-14T02:54:00;101930.339;;;6.6;71.0
73422;BME280;61637;47.760;-122.022;2023-12-14T02:56:01;101930.339;;;6.6;71.0
73422;BME280;61637;47.760;-122.022;2023-12-14T02:58:00;101930.339;;;6.6;71.0
73422;BME280;61637;47.760;-122.022;2023-12-14T03:00:00;101930.339;;;6.6;72.0
73422;BME280;61637;47.760;-122.022;2023-12-14T03:02:00;101930.339;;;6.6;74.0
73422;BME280;61637;47.760;-122.022;2023-12-14T03:04:00;101930.339;;;6.6;71.0
73422;BME280;61637;47.760;-122.022;2023-12-14T03:06:00;101930.339;;;6.6;72.0
73422;BME280;61637;47.760;-122.022;2023-12-14T03:08:00;101930.339;;;6.5;73.0
73422;BME280;61637;47.760;-122.022;2023-12-14T03:10:01;101930.339;;;6.4;72.0
73422;BME280;61637;47.760;-122.022;2023-12-14T03:12:00;101930.339;;;6.4;73.0
73422;BME280;61637;47.760;-122.022;2023-12-14T03:14:00;101930.339;;;6.4;74.0
73422;BME280;61637;47.760;-122.022;2023-12-14T03:16:00;101930.339;;;6.4;74.0
73422;BME280;61637;47.760;-122.022;2023-12-14T03:18:00;101930.339;;;6.4;72.0
73422;BME280;61637;47.760;-122.022;2023-12-14T03:20:00;101930.339;;;6.4;73.0
73422;BME280;61637;47.760;-122.022;2023-12-14T03:22:00;101930.339;;;6.4;73.0
73422;BME280;61637;47.760;-122.022;2023-12-14T03:24:01;101930.339;;;6.4;73.0
73422;BME280;61637;47.760;-122.022;2023-12-14T03:26:00;101930.339;;;6.4;72.0
73422;BME280;61637;47.760;-122.022;2023-12-14T03:28:00;101930.339;;;6.4;74.0
73422;BME280;61637;47.760;-122.022;2023-12-14T03:30:00;101930.339;;;6.4;74.0
73422;BME280;61637;47.760;-122.022;2023-12-14T03:32:00;101930.339;;;6.4;72.0
73422;BME280;61637;47.760;-122.022;2023-12-14T03:34:00;101930.339;;;6.5;74.0
73422;BME280;61637;47.760;-122.022;2023-12-14T03:36:00;101930.339;;;6.5;73.0
73422;BME280;61637;47.760;-122.022;2023-12-14T03:38:00;101930.339;;;6.6;69.0
73422;BME280;61637;47.760;-122.022;2023-12-14T03:40:00;101930.339;;;6.7;72.0
73422;BME280;61637;47.760;-122.022;2023-12-14T03:42:00;101930.339;;;6.7;73.0
73422;BME280;61637;47.760;-122.022;2023-12-14T03:44:00;101930.339;;;6.7;70.0
73422;BME280;61637;47.760;-122.022;2023-12-14T03:46:00;101930.339;;;6.8;70.0
73422;BME280;61637;47.760;-122.022;2023-12-14T03:48:00;101930.339;;;6.8;69.0
73422;BME280;61637;47.760;-122.022;2023-12-14T03:50:00;101930.339;;;7.0;68.0
73422;BME280;61637;47.760;-122.022;2023-12-14T03:52:00;101930.339;;;7.1;70.0
73422;BME280;61637;47.760;-122.022;2023-12-14T03:54:00;101930.339;;;7.1;71.0
73422;BME280;61637;47.760;-122.022;2023-12-14T03:56:01;101930.339;;;7.1;69.0
73422;BME280;61637;47.760;-122.022;2023-12-14T03:58:00;101930.339;;;7.1;68.0
73422;BME280;61637;47.760;-122.022;2023-12-14T04:00:00;101930.339;;;7.2;65.0
73422;BME280;61637;47.760;-122.022;2023-12-14T04:02:00;101930.339;;;7.3;67.0
73422;BME280;61637;47.760;-122.022;2023-12-14T04:04:00;101930.339;;;7.3;69.0
73422;BME280;61637;47.760;-122.022;2023-12-14T04:06:00;101930.339;;;7.4;67.0
73422;BME280;61637;47.760;-122.022;2023-12-14T04:08:00;101930.339;;;7.4;69.0
73422;BME280;61637;47.760;-122.022;2023-12-14T04:10:00;101930.339;;;7.3;67.0
73422;BME280;61637;47.760;-122.022;2023-12-14T04:12:00;101930.339;;;7.3;66.0
73422;BME280;61637;47.760;-122.022;2023-12-14T04:14:00;101930.339;;;7.3;71.0
73422;BME280;61637;47.760;-122.022;2023-12-14T04:16:00;101930.339;;;7.3;69.0
73422;BME280;61637;47.760;-122.022;2023-12-14T04:18:00;101930.339;;;7.3;72.0
73422;BME280;61637;47.760;-122.022;2023-12-14T04:20:01;101930.339;;;7.2;70.0
73422;BME280;61637;47.760;-122.022;2023-12-14T04:22:00;101930.339;;;7.2;70.0
73422;BME280;61637;47.760;-122.022;2023-12-14T04:24:00;101930.339;;;7.2;66.0
73422;BME280;61637;47.760;-122.022;2023-12-14T04:26:00;101930.339;;;7.2;67.0
73422;BME280;61637;47.760;-122.022;2023-12-14T04:28:00;101930.339;;;7.3;68.0
73422;BME280;61637;47.760;-122.022;2023-12-14T04:30:00;101930.339;;;7.3;68.0
73422;BME280;61637;47.760;-122.022;2023-12-14T04:32:00;101930.339;;;7.3;69.0
73422;BME280;61637;47.760;-122.022;2023-12-14T04:34:00;101930.339;;;7.3;68.0
73422;BME280;61637;47.760;-122.022;2023-12-14T04:36:00;101930.339;;;7.3;69.0
73422;BME280;61637;47.760;-122.022;2023-12-14T04:38:00;101930.339;;;7.2;68.0
73422;BME280;61637;47.760;-122.022;2023-12-14T04:40:00;101930.339;;;7.2;68.0
73422;BME280;61637;47.760;-122.022;2023-12-14T04:42:00;101930.339;;;7.2;67.0
73422;BME280;61637;47.760;-122.022;2023-12-14T04:44:00;101930.339;;;7.2;68.0
73422;BME280;61637;47.760;-122.022;2023-12-14T04:46:00;101930.339;;;7.2;66.0
73422;BME280;61637;47.760;-122.022;2023-12-14T04:48:00;101930.339;;;7.2;66.0
73422;BME280;61637;47.760;-122.022;2023-12-14T04:50:00;101930.339;;;7.2;65.0
73422;BME280;61637;47.760;-122.022;2023-12-14T04:52:00;101930.339;;;7.3;66.0
73422;BME280;61637;47.760;-122.022;2023-12-14T04:54:00;101930.339;;;7.3;65.0
73422;BME280;61637;47.760;-122.022;2023-12-14T04:56:00;101930.339;;;7.4;65.0
73422;BME280;61637;47.760;-122.022;2023-12-14T04:58:00;101930.339;;;7.4;67.0
73422;BME280;61637;47.760;-122.022;2023-12-14T05:00:00;101930.339;;;7.3;68.0
73422;BME280;61637;47.760;-122.022;2023-12-14T05:02:00;101930.339;;;7.4;65.0
73422;BME280;61637;47.760;-122.022;2023-12-14T05:04:00;101930.339;;;7.3;67.0
73422;BME280;61637;47.760;-122.022;2023-12-14T05:06:00;101930.339;;;7.3;68.0
73422;BME280;61637;47.760;-122.022;2023-12-14T05:08:01;101930.339;;;7.2;68.0
73422;BME280;61637;47.760;-122.022;2023-12-14T05:10:00;101930.339;;;7.2;68.0
73422;BME280;61637;47.760;-122.022;2023-12-14T05:12:00;101930.339;;;7.2;69.0
73422;BME280;61637;47.760;-122.022;2023-12-14T05:14:00;101930.339;;;7.1;73.0
73422;BME280;61637;47.760;-122.022;2023-12-14T05:16:00;101930.339;;;6.9;73.0
73422;BME280;61637;47.760;-122.022;2023-12-14T05:18:00;101930.339;;;6.9;71.0
73422;BME280;61637;47.760;-122.022;2023-12-14T05:20:01;101930.339;;;6.8;74.0
73422;BME280;61637;47.760;-122.022;2023-12-14T05:22:00;101930.339;;;6.7;74.0
73422;BME280;61637;47.760;-122.022;2023-12-14T05:24:00;101930.339;;;6.6;74.0
73422;BME280;61637;47.760;-122.022;2023-12-14T05:26:00;101930.339;;;6.6;74.0
73422;BME280;61637;47.760;-122.022;2023-12-14T05:28:00;101930.339;;;6.6;72.0
73422;BME280;61637;47.760;-122.022;2023-12-14T05:30:00;101930.339;;;6.6;72.0
73422;BME280;61637;47.760;-122.022;2023-12-14T05:32:00;101930.339;;;6.5;73.0
73422;BME280;61637;47.760;-122.022;2023-12-14T05:34:01;101930.339;;;6.5;71.0
73422;BME280;61637;47.760;-122.022;2023-12-14T05:36:00;101930.339;;;6.4;72.0
73422;BME280;61637;47.760;-122.022;2023-12-14T05:38:00;101930.339;;;6.4;69.0
73422;BME280;61637;47.760;-122.022;2023-12-14T05:40:00;101930.339;;;6.5;71.0
73422;BME280;61637;47.760;-122.022;2023-12-14T05:42:00;101930.339;;;6.6;70.0
73422;BME280;61637;47.760;-122.022;2023-12-14T05:44:00;101930.339;;;6.6;70.0
73422;BME280;61637;47.760;-122.022;2023-12-14T05:46:00;101930.339;;;6.6;74.0
73422;BME280;61637;47.760;-122.022;2023-12-14T05:48:01;101930.339;;;6.6;74.0
73422;BME280;61637;47.760;-122.022;2023-12-14T05:50:00;101930.339;;;6.4;72.0
73422;BME280;61637;47.760;-122.022;2023-12-14T05:52:00;101930.339;;;6.4;73.0
73422;BME280;61637;47.760;-122.022;2023-12-14T05:54:00;101930.339;;;6.4;74.0
73422;BME280;61637;47.760;-122.022;2023-12-14T05:56:00;101930.339;;;6.4;75.0
73422;BME280;61637;47.760;-122.022;2023-12-14T05:58:00;101930.339;;;6.3;72.0
73422;BME280;61637;47.760;-122.022;2023-12-14T06:00:00;101930.339;;;6.3;74.0
73422;BME280;61637;47.760;-122.022;2023-12-14T06:02:00;101930.339;;;6.3;74.0
73422;BME280;61637;47.760;-122.022;2023-12-14T06:04:00;101930.339;;;6.3;75.0
73422;BME280;61637;47.760;-122.022;2023-12-14T06:06:00;101930.339;;;6.3;76.0
73422;BME280;61637;47.760;-122.022;2023-12-14T06:08:00;101930.339;;;6.3;76.0
73422;BME280;61637;47.760;-122.022;2023-12-14T06:10:00;101930.339;;;6.3;75.0
73422;BME280;61637;47.760;-122.022;2023-12-14T06:12:00;101930.339;;;6.3;75.0
73422;BME280;61637;47.760;-122.022;2023-12-14T06:14:00;101930.339;;;6.3;74.0
73422;BME280;61637;47.760;-122.022;2023-12-14T06:16:00;101930.339;;;6.3;74.0
73422;BME280;61637;47.760;-122.022;2023-12-14T06:18:00;101930.339;;;6.3;76.0
73422;BME280;61637;47.760;-122.022;2023-12-14T06:20:00;101930.339;;;6.2;75.0
73422;BME280;61637;47.760;-122.022;2023-12-14T06:22:00;101930.339;;;6.3;76.0
73422;BME280;61637;47.760;-122.022;2023-12-14T06:24:00;101930.339;;;6.2;76.0
73422;BME280;61637;47.760;-122.022;2023-12-14T06:26:02;101930.339;;;6.2;79.0
73422;BME280;61637;47.760;-122.022;2023-12-14T06:28:00;101930.339;;;6.2;79.0
73422;BME280;61637;47.760;-122.022;2023-12-14T06:30:00;101930.339;;;6.2;77.0
73422;BME280;61637;47.760;-122.022;2023-12-14T06:32:00;101930.339;;;6.1;78.0
73422;BME280;61637;47.760;-122.022;2023-12-14T06:34:00;101930.339;;;6.1;78.0
73422;BME280;61637;47.760;-122.022;2023-12-14T06:36:03;101930.339;;;6.0;78.0
73422;BME280;61637;47.760;-122.022;2023-12-14T06:38:00;101930.339;;;6.1;79.0
73422;BME280;61637;47.760;-122.022;2023-12-14T06:40:00;101930.339;;;6.0;81.0
73422;BME280;61637;47.760;-122.022;2023-12-14T06:42:00;101930.339;;;5.9;81.0
73422;BME280;61637;47.760;-122.022;2023-12-14T06:44:00;101930.339;;;5.9;77.0
73422;BME280;61637;47.760;-122.022;2023-12-14T06:46:00;101930.339;;;5.9;80.0
73422;BME280;61637;47.760;-122.022;2023-12-14T06:48:00;101930.339;;;5.9;82.0
73422;BME280;61637;47.760;-122.022;2023-12-14T06:50:00;101930.339;;;5.9;79.0
73422;BME280;61637;47.760;-122.022;2023-12-14T06:52:00;101930.339;;;5.9;76.0
73422;BME280;61637;47.760;-122.022;2023-12-14T06:54:00;101930.339;;;5.9;78.0
73422;BME280;61637;47.760;-122.022;2023-12-14T06:56:00;101930.339;;;5.9;76.0
73422;BME280;61637;47.760;-122.022;2023-12-14T06:58:00;101930.339;;;5.9;76.0
73422;BME280;61637;47.760;-122.022;2023-12-14T07:00:00;101930.339;;;5.9;76.0
73422;BME280;61637;47.760;-122.022;2023-12-14T07:02:00;101930.339;;;6.0;76.0
73422;BME280;61637;47.760;-122.022;2023-12-14T07:04:00;101930.339;;;6.1;77.0
73422;BME280;61637;47.760;-122.022;2023-12-14T07:06:00;101930.339;;;6.1;77.0
73422;BME280;61637;47.760;-122.022;2023-12-14T07:08:00;101930.339;;;6.1;76.0
73422;BME280;61637;47.760;-122.022;2023-12-14T07:10:00;101930.339;;;6.1;76.0
73422;BME280;61637;47.760;-122.022;2023-12-14T07:12:01;101930.339;;;6.1;78.0
73422;BME280;61637;47.760;-122.022;2023-12-14T07:14:00;101930.339;;;6.1;75.0
73422;BME280;61637;47.760;-122.022;2023-12-14T07:16:00;101930.339;;;6.2;75.0
73422;BME280;61637;47.760;-122.022;2023-12-14T07:18:00;101930.339;;;6.2;76.0
73422;BME280;61637;47.760;-122.022;2023-12-14T07:20:00;101930.339;;;6.2;75.0
73422;BME280;61637;47.760;-122.022;2023-12-14T07:22:00;101930.339;;;6.2;75.0
73422;BME280;61637;47.760;-122.022;2023-12-14T07:24:01;101930.339;;;6.2;77.0
73422;BME280;61637;47.760;-122.022;2023-12-14T07:26:00;101930.339;;;6.2;76.0
73422;BME280;61637;47.760;-122.022;2023-12-14T07:28:00;101930.339;;;6.2;76.0
73422;BME280;61637;47.760;-122.022;2023-12-14T07:30:00;101930.339;;;6.2;77.0
73422;BME280;61637;47.760;-122.022;2023-12-14T07:32:00;101930.339;;;6.2;77.0
73422;BME280;61637;47.760;-122.022;2023-12-14T07:34:00;101930.339;;;6.2;77.0
73422;BME280;61637;47.760;-122.022;2023-12-14T07:36:00;101930.339;;;6.2;77.0
73422;BME280;61637;47.760;-122.022;2023-12-14T07:38:00;101930.339;;;6.1;79.0
73422;BME280;61637;47.760;-122.022;2023-12-14T07:40:00;101930.339;;;6.1;77.0
73422;BME280;61637;47.760;-122.022;2023-12-14T07:42:00;101930.339;;;6.0;79.0
73422;BME280;61637;47.760;-122.022;2023-12-14T07:44:00;101930.339;;;5.9;77.0
73422;BME280;61637;47.760;-122.022;2023-12-14T07:46:00;101930.339;;;5.9;77.0
73422;BME280;61637;47.760;-122.022;2023-12-14T07:48:00;101930.339;;;5.9;78.0
73422;BME280;61637;47.760;-122.022;2023-12-14T07:50:00;101930.339;;;5.9;80.0
73422;BME280;61637;47.760;-122.022;2023-12-14T07:52:00;101930.339;;;5.8;77.0
73422;BME280;61637;47.760;-122.022;2023-12-14T07:54:00;101930.339;;;5.8;79.0
73422;BME280;61637;47.760;-122.022;2023-12-14T07:56:00;101930.339;;;5.8;79.0
73422;BME280;61637;47.760;-122.022;2023-12-14T07:58:00;101930.339;;;5.7;80.0
73422;BME280;61637;47.760;-122.022;2023-12-14T08:00:00;101930.339;;;5.7;80.0
73422;BME280;61637;47.760;-122.022;2023-12-14T08:02:00;101930.339;;;5.7;81.0
73422;BME280;61637;47.760;-122.022;2023-12-14T08:04:00;101930.339;;;5.7;81.0
73422;BME280;61637;47.760;-122.022;2023-12-14T08:06:00;101930.339;;;5.6;80.0
73422;BME280;61637;47.760;-122.022;2023-12-14T08:08:00;101930.339;;;5.6;80.0
73422;BME280;61637;47.760;-122.022;2023-12-14T08:10:01;101930.339;;;5.6;79.0
73422;BME280;61637;47.760;-122.022;2023-12-14T08:12:00;101930.339;;;5.6;79.0
73422;BME280;61637;47.760;-122.022;2023-12-14T08:14:00;101930.339;;;5.5;78.0
73422;BME280;61637;47.760;-122.022;2023-12-14T08:16:00;101930.339;;;5.5;82.0
73422;BME280;61637;47.760;-122.022;2023-12-14T08:18:00;101930.339;;;5.4;80.0
73422;BME280;61637;47.760;-122.022;2023-12-14T08:20:00;101930.339;;;5.4;78.0
73422;BME280;61637;47.760;-122.022;2023-12-14T08:22:00;101930.339;;;5.4;78.0
73422;BME280;61637;47.760;-122.022;2023-12-14T08:24:00;101930.339;;;5.4;80.0
73422;BME280;61637;47.760;-122.022;2023-12-14T08:26:00;101930.339;;;5.4;79.0
73422;BME280;61637;47.760;-122.022;2023-12-14T08:28:00;101930.339;;;5.4;78.0
73422;BME280;61637;47.760;-122.022;2023-12-14T08:30:00;101930.339;;;5.4;79.0
73422;BME280;61637;47.760;-122.022;2023-12-14T08:32:00;101930.339;;;5.4;80.0
73422;BME280;61637;47.760;-122.022;2023-12-14T08:34:00;101930.339;;;5.4;80.0
73422;BME280;61637;47.760;-122.022;2023-12-14T08:36:00;101930.339;;;5.5;79.0
73422;BME280;61637;47.760;-122.022;2023-12-14T08:38:00;101930.339;;;5.5;81.0
73422;BME280;61637;47.760;-122.022;2023-12-14T08:40:00;101930.339;;;5.6;79.0
73422;BME280;61637;47.760;-122.022;2023-12-14T08:42:00;101930.339;;;5.6;81.0
73422;BME280;61637;47.760;-122.022;2023-12-14T08:44:00;101930.339;;;5.6;78.0
73422;BME280;61637;47.760;-122.022;2023-12-14T08:46:00;101930.339;;;5.6;78.0
73422;BME280;61637;47.760;-122.022;2023-12-14T08:48:00;101930.339;;;5.7;77.0
73422;BME280;61637;47.760;-122.022;2023-12-14T08:50:00;101930.339;;;5.7;80.0
73422;BME280;61637;47.760;-122.022;2023-12-14T08:52:00;101930.339;;;5.7;81.0
73422;BME280;61637;47.760;-122.022;2023-12-14T08:54:00;101930.339;;;5.7;79.0
73422;BME280;61637;47.760;-122.022;2023-12-14T08:56:00;101930.339;;;5.7;79.0
73422;BME280;61637;47.760;-122.022;2023-12-14T08:58:00;101930.339;;;5.7;77.0
73422;BME280;61637;47.760;-122.022;2023-12-14T09:00:00;101930.339;;;5.8;81.0
73422;BME280;61637;47.760;-122.022;2023-12-14T09:02:00;101930.339;;;5.8;80.0
73422;BME280;61637;47.760;-122.022;2023-12-14T09:04:00;101930.339;;;5.7;81.0
73422;BME280;61637;47.760;-122.022;2023-12-14T09:06:00;101930.339;;;5.7;81.0
73422;BME280;61637;47.760;-122.022;2023-12-14T09:08:00;101930.339;;;5.7;78.0
73422;BME280;61637;47.760;-122.022;2023-12-14T09:10:00;101930.339;;;5.7;78.0
73422;BME280;61637;47.760;-122.022;2023-12-14T09:12:00;101930.339;;;5.8;80.0
73422;BME280;61637;47.760;-122.022;2023-12-14T09:14:00;101930.339;;;5.8;81.0
73422;BME280;61637;47.760;-122.022;2023-12-14T09:16:00;101930.339;;;5.8;80.0
73422;BME280;61637;47.760;-122.022;2023-12-14T09:18:00;101930.339;;;5.8;78.0
73422;BME280;61637;47.760;-122.022;2023-12-14T09:20:00;101930.339;;;5.8;81.0
73422;BME280;61637;47.760;-122.022;2023-12-14T09:22:00;101930.339;;;5.8;81.0
73422;BME280;61637;47.760;-122.022;2023-12-14T09:24:00;101930.339;;;5.8;80.0
73422;BME280;61637;47.760;-122.022;2023-12-14T09:26:00;101930.339;;;5.8;79.0
73422;BME280;61637;47.760;-122.022;2023-12-14T09:28:00;101930.339;;;5.8;80.0
73422;BME280;61637;47.760;-122.022;2023-12-14T09:30:00;101930.339;;;5.8;80.0
73422;BME280;61637;47.760;-122.022;2023-12-14T09:32:00;101930.339;;;5.8;76.0
73422;BME280;61637;47.760;-122.022;2023-12-14T09:34:01;101930.339;;;5.9;76.0
73422;BME280;61637;47.760;-122.022;2023-12-14T09:36:00;101930.339;;;5.9;77.0
73422;BME280;61637;47.760;-122.022;2023-12-14T09:38:00;101930.339;;;6.0;79.0
73422;BME280;61637;47.760;-122.022;2023-12-14T09:40:00;101930.339;;;6.0;78.0
73422;BME280;61637;47.760;-122.022;2023-12-14T09:42:01;101930.339;;;6.0;79.0
73422;BME280;61637;47.760;-122.022;2023-12-14T09:44:00;101930.339;;;6.0;80.0
73422;BME280;61637;47.760;-122.022;2023-12-14T09:46:01;101930.339;;;6.0;78.0
73422;BME280;61637;47.760;-122.022;2023-12-14T09:48:00;101930.339;;;6.0;81.0
73422;BME280;61637;47.760;-122.022;2023-12-14T09:50:00;101930.339;;;6.0;78.0
73422;BME280;61637;47.760;-122.022;2023-12-14T09:52:00;101930.339;;;6.0;76.0
73422;BME280;61637;47.760;-122.022;2023-12-14T09:54:00;101930.339;;;6.0;77.0
73422;BME280;61637;47.760;-122.022;2023-12-14T09:56:00;101930.339;;;6.1;76.0
73422;BME280;61637;47.760;-122.022;2023-12-14T09:58:01;101930.339;;;6.1;75.0
73422;BME280;61637;47.760;-122.022;2023-12-14T10:00:00;101930.339;;;6.1;77.0
73422;BME280;61637;47.760;-122.022;2023-12-14T10:02:09;101930.339;;;6.1;75.0
73422;BME280;61637;47.760;-122.022;2023-12-14T10:04:07;101930.339;;;6.2;73.0
73422;BME280;61637;47.760;-122.022;2023-12-14T10:06:00;101930.339;;;6.2;73.0
73422;BME280;61637;47.760;-122.022;2023-12-14T10:08:00;101930.339;;;6.3;73.0
73422;BME280;61637;47.760;-122.022;2023-12-14T10:10:09;101930.339;;;6.3;72.0
73422;BME280;61637;47.760;-122.022;2023-12-14T10:12:02;101930.339;;;6.4;71.0
73422;BME280;61637;47.760;-122.022;2023-12-14T10:14:00;101930.339;;;6.4;73.0
73422;BME280;61637;47.760;-122.022;2023-12-14T10:16:00;101930.339;;;6.5;71.0
73422;BME280;61637;47.760;-122.022;2023-12-14T10:18:00;101930.339;;;6.6;72.0